createdAt,value
2023-03-10T00:00:27.793Z,7.7
2023-03-10T00:01:36.315Z,6.5
2023-03-10T00:02:44.641Z,6.5
2023-03-10T00:03:52.961Z,6.5
2023-03-10T00:05:01.475Z,7.9
2023-03-10T00:06:09.866Z,7.9
2023-03-10T00:07:18.138Z,7.9
2023-03-10T00:08:27.209Z,9.2
2023-03-10T00:09:34.970Z,9.2
2023-03-10T00:10:43.296Z,9.2
2023-03-10T00:11:51.802Z,6.7
2023-03-10T00:13:00.121Z,6.7
2023-03-10T00:14:08.450Z,6.7
2023-03-10T00:15:16.970Z,6.4
2023-03-10T00:16:25.310Z,6.4
2023-03-10T00:17:33.611Z,6.4
2023-03-10T00:18:42.166Z,7
2023-03-10T00:19:50.492Z,7
2023-03-10T00:20:58.799Z,7
2023-03-10T00:22:07.318Z,6.3
2023-03-10T00:23:15.664Z,6.3
2023-03-10T00:24:23.962Z,6.3
2023-03-10T00:25:32.488Z,9.7
2023-03-10T00:26:40.830Z,9.7
2023-03-10T00:27:49.134Z,9.7
2023-03-10T00:28:57.657Z,6.6
2023-03-10T00:30:05.979Z,6.6
2023-03-10T00:31:14.314Z,6.6
2023-03-10T00:32:22.891Z,7.6
2023-03-10T00:33:31.162Z,7.6
2023-03-10T00:34:39.482Z,7.6
2023-03-10T00:35:48.038Z,7.6
2023-03-10T00:36:56.326Z,7.6
2023-03-10T00:38:04.631Z,7.6
2023-03-10T00:39:13.198Z,6.7
2023-03-10T00:40:21.474Z,6.7
2023-03-10T00:41:29.793Z,6.7
2023-03-10T00:42:38.317Z,8.6
2023-03-10T00:43:46.642Z,8.6
2023-03-10T00:44:54.956Z,8.6
2023-03-10T00:46:03.560Z,7
2023-03-10T00:47:11.814Z,7
2023-03-10T00:48:20.143Z,7
2023-03-10T00:49:28.670Z,6.2
2023-03-10T00:50:36.989Z,6.2
2023-03-10T00:51:45.329Z,6.2
2023-03-10T00:52:53.831Z,9.4
2023-03-10T00:54:02.162Z,9.4
2023-03-10T00:55:10.506Z,9.4
2023-03-10T00:56:19.024Z,9
2023-03-10T00:57:27.346Z,9
2023-03-10T00:58:35.672Z,9
2023-03-10T00:59:50.246Z,8.4
2023-03-10T01:00:52.523Z,8.4
2023-03-10T01:02:00.974Z,8.4
2023-03-10T01:03:09.388Z,6
2023-03-10T01:04:17.737Z,6
2023-03-10T01:05:26.049Z,6
2023-03-10T01:06:34.570Z,8.6
2023-03-10T01:07:42.884Z,8.6
2023-03-10T01:08:51.205Z,8.6
2023-03-10T01:09:59.741Z,8
2023-03-10T01:11:08.153Z,8
2023-03-10T01:12:16.412Z,8
2023-03-10T01:13:24.933Z,6.5
2023-03-10T01:14:33.268Z,6.5
2023-03-10T01:15:41.623Z,6.5
2023-03-10T01:16:50.128Z,6.1
2023-03-10T01:17:58.444Z,6.1
2023-03-10T01:19:06.770Z,6.1
2023-03-10T01:20:15.332Z,7.5
2023-03-10T01:21:23.622Z,7.5
2023-03-10T01:22:31.943Z,7.5
2023-03-10T01:23:40.470Z,6.3
2023-03-10T01:24:48.799Z,6.3
2023-03-10T01:25:57.122Z,6.3
2023-03-10T01:27:05.677Z,4.9
2023-03-10T01:28:13.973Z,4.9
2023-03-10T01:29:22.297Z,4.9
2023-03-10T01:30:30.821Z,6.2
2023-03-10T01:31:39.192Z,6.2
2023-03-10T01:32:47.461Z,6.2
2023-03-10T01:33:55.988Z,5.2
2023-03-10T01:35:04.309Z,5.2
2023-03-10T01:36:12.708Z,5.2
2023-03-10T01:37:21.173Z,6.4
2023-03-10T01:38:29.476Z,6.4
2023-03-10T01:39:37.804Z,6.4
2023-03-10T01:40:46.332Z,6
2023-03-10T01:41:54.643Z,6
2023-03-10T01:43:03.076Z,6
2023-03-10T01:44:11.499Z,6.3
2023-03-10T01:45:19.822Z,6.3
2023-03-10T01:46:28.192Z,6.3
2023-03-10T01:47:36.662Z,6.2
2023-03-10T01:48:44.981Z,6.2
2023-03-10T01:49:53.307Z,6.2
2023-03-10T01:51:01.844Z,5.8
2023-03-10T01:52:10.154Z,5.8
2023-03-10T01:53:18.471Z,5.8
2023-03-10T01:54:27.035Z,5.7
2023-03-10T01:55:35.353Z,5.7
2023-03-10T01:56:43.669Z,5.7
2023-03-10T01:57:52.194Z,5.2
2023-03-10T01:59:00.540Z,5.2
2023-03-10T02:00:08.831Z,5.2
2023-03-10T02:01:17.500Z,5.3
2023-03-10T02:02:25.722Z,5.3
2023-03-10T02:03:33.985Z,5.3
2023-03-10T02:04:42.520Z,5.2
2023-03-10T02:05:50.829Z,5.2
2023-03-10T02:06:59.157Z,5.2
2023-03-10T02:08:07.684Z,7.6
2023-03-10T02:09:15.987Z,7.6
2023-03-10T02:10:24.308Z,7.6
2023-03-10T02:11:32.825Z,5.5
2023-03-10T02:12:41.127Z,5.5
2023-03-10T02:13:49.458Z,5.5
2023-03-10T02:14:58.011Z,6.6
2023-03-10T02:16:06.330Z,6.6
2023-03-10T02:17:14.644Z,6.6
2023-03-10T02:18:23.177Z,4.5
2023-03-10T02:19:31.507Z,4.5
2023-03-10T02:20:39.828Z,4.5
2023-03-10T02:21:48.345Z,8
2023-03-10T02:22:56.671Z,8
2023-03-10T02:24:04.976Z,8
2023-03-10T02:25:13.502Z,5.2
2023-03-10T02:26:21.814Z,5.2
2023-03-10T02:27:30.139Z,5.2
2023-03-10T02:28:38.656Z,3.9
2023-03-10T02:29:58.266Z,3.9
2023-03-10T02:30:55.321Z,3.9
2023-03-10T02:32:03.895Z,7.3
2023-03-10T02:33:12.142Z,7.3
2023-03-10T02:34:20.462Z,7.3
2023-03-10T02:35:28.990Z,7.3
2023-03-10T02:36:37.306Z,7.3
2023-03-10T02:37:45.624Z,7.3
2023-03-10T02:38:54.133Z,5.3
2023-03-10T02:40:02.457Z,5.3
2023-03-10T02:41:10.766Z,5.3
2023-03-10T02:42:19.291Z,3.3
2023-03-10T02:43:27.612Z,3.3
2023-03-10T02:44:35.930Z,3.3
2023-03-10T02:45:44.532Z,4.7
2023-03-10T02:46:52.887Z,4.7
2023-03-10T02:48:01.139Z,4.7
2023-03-10T02:49:09.660Z,5.2
2023-03-10T02:50:17.988Z,5.2
2023-03-10T02:51:26.290Z,5.2
2023-03-10T02:52:34.807Z,5.2
2023-03-10T02:53:43.121Z,5.2
2023-03-10T02:54:51.417Z,5.2
2023-03-10T02:55:59.969Z,5.2
2023-03-10T02:57:08.281Z,5.2
2023-03-10T02:58:16.593Z,5.2
2023-03-10T02:59:25.125Z,4.9
2023-03-10T03:00:33.456Z,4.9
2023-03-10T03:01:41.763Z,4.9
2023-03-10T03:02:50.303Z,4.9
2023-03-10T03:03:58.696Z,4.9
2023-03-10T03:05:06.939Z,4.9
2023-03-10T03:06:15.504Z,4.5
2023-03-10T03:07:23.815Z,4.5
2023-03-10T03:08:32.135Z,4.5
2023-03-10T03:09:40.655Z,4.7
2023-03-10T03:10:48.997Z,4.7
2023-03-10T03:11:57.314Z,4.7
2023-03-10T03:13:05.851Z,2.5
2023-03-10T03:14:14.153Z,2.5
2023-03-10T03:15:22.482Z,2.5
2023-03-10T03:16:31.022Z,3.3
2023-03-10T03:17:39.327Z,3.3
2023-03-10T03:18:47.669Z,3.3
2023-03-10T03:19:56.167Z,3
2023-03-10T03:21:04.489Z,3
2023-03-10T03:22:12.797Z,3
2023-03-10T03:23:21.316Z,3.7
2023-03-10T03:24:29.632Z,3.7
2023-03-10T03:25:37.955Z,3.7
2023-03-10T03:26:46.462Z,2.5
2023-03-10T03:27:54.766Z,2.5
2023-03-10T03:29:03.105Z,2.5
2023-03-10T03:30:11.633Z,2.8
2023-03-10T03:31:20.008Z,2.8
2023-03-10T03:32:28.327Z,2.8
2023-03-10T03:33:36.792Z,3
2023-03-10T03:34:45.120Z,3
2023-03-10T03:35:53.503Z,3
2023-03-10T03:37:01.939Z,3.4
2023-03-10T03:38:10.259Z,3.4
2023-03-10T03:39:18.614Z,3.4
2023-03-10T03:40:27.094Z,4.1
2023-03-10T03:41:35.413Z,4.1
2023-03-10T03:42:43.713Z,4.1
2023-03-10T03:43:52.263Z,3.8
2023-03-10T03:45:00.581Z,3.8
2023-03-10T03:46:08.960Z,3.8
2023-03-10T03:47:17.471Z,3.5
2023-03-10T03:48:25.789Z,3.5
2023-03-10T03:49:34.106Z,3.5
2023-03-10T03:50:42.719Z,2.1
2023-03-10T03:51:50.953Z,2.1
2023-03-10T03:52:59.266Z,2.1
2023-03-10T03:54:07.780Z,2.9
2023-03-10T03:55:16.113Z,2.9
2023-03-10T03:56:24.413Z,2.9
2023-03-10T03:57:32.935Z,3.1
2023-03-10T03:58:41.252Z,3.1
2023-03-10T03:59:49.569Z,3.1
2023-03-10T04:00:58.090Z,4
2023-03-10T04:02:06.455Z,4
2023-03-10T04:03:14.806Z,4
2023-03-10T04:04:23.298Z,3.1
2023-03-10T04:05:31.594Z,3.1
2023-03-10T04:06:39.944Z,3.1
2023-03-10T04:07:48.494Z,3.3
2023-03-10T04:08:56.726Z,3.3
2023-03-10T04:10:05.041Z,3.3
2023-03-10T04:11:13.570Z,2.4
2023-03-10T04:12:21.881Z,2.4
2023-03-10T04:13:30.196Z,2.4
2023-03-10T04:14:38.716Z,2.6
2023-03-10T04:15:47.059Z,2.6
2023-03-10T04:16:55.349Z,2.6
2023-03-10T04:18:03.857Z,2.1
2023-03-10T04:19:12.170Z,2.1
2023-03-10T04:20:20.487Z,2.1
2023-03-10T04:21:29.028Z,1.7
2023-03-10T04:22:37.368Z,1.7
2023-03-10T04:23:45.658Z,1.7
2023-03-10T04:24:54.173Z,2.5
2023-03-10T04:26:02.501Z,2.5
2023-03-10T04:27:10.824Z,2.5
2023-03-10T04:28:19.361Z,1.7
2023-03-10T04:29:27.655Z,1.7
2023-03-10T04:30:35.969Z,1.7
2023-03-10T04:31:50.471Z,3.6
2023-03-10T04:32:52.864Z,3.6
2023-03-10T04:34:01.142Z,3.6
2023-03-10T04:35:09.670Z,2.2
2023-03-10T04:36:18.026Z,2.2
2023-03-10T04:37:26.298Z,2.2
2023-03-10T04:38:34.844Z,2.3
2023-03-10T04:39:43.138Z,2.3
2023-03-10T04:40:51.446Z,2.3
2023-03-10T04:41:59.975Z,2.3
2023-03-10T04:43:08.276Z,2.3
2023-03-10T04:44:28.385Z,2.3
2023-03-10T04:45:25.108Z,4.3
2023-03-10T04:46:33.491Z,4.3
2023-03-10T04:47:41.737Z,4.3
2023-03-10T04:48:50.252Z,2.7
2023-03-10T04:49:58.567Z,2.7
2023-03-10T04:51:06.876Z,2.7
2023-03-10T04:52:15.402Z,6
2023-03-10T04:53:23.717Z,6
2023-03-10T04:54:32.054Z,6
2023-03-10T04:55:40.542Z,1.4
2023-03-10T04:56:48.858Z,1.4
2023-03-10T04:57:57.172Z,1.4
2023-03-10T04:59:05.701Z,1
2023-03-10T05:00:14.027Z,1
2023-03-10T05:01:22.395Z,1
2023-03-10T05:02:30.857Z,0.8
2023-03-10T05:03:39.213Z,0.8
2023-03-10T05:04:47.566Z,0.8
2023-03-10T05:05:56.002Z,0.8
2023-03-10T05:07:04.345Z,0.8
2023-03-10T05:08:12.667Z,0.8
2023-03-10T05:09:21.177Z,1.1
2023-03-10T05:10:29.529Z,1.1
2023-03-10T05:11:37.827Z,1.1
2023-03-10T05:12:46.363Z,1.8
2023-03-10T05:13:54.682Z,1.8
2023-03-10T05:15:02.990Z,1.8
2023-03-10T05:16:11.675Z,1.7
2023-03-10T05:17:19.836Z,1.7
2023-03-10T05:18:28.151Z,1.7
2023-03-10T05:19:36.659Z,1
2023-03-10T05:20:44.970Z,1
2023-03-10T05:21:53.290Z,1
2023-03-10T05:23:01.805Z,0.9
2023-03-10T05:24:10.119Z,0.9
2023-03-10T05:25:18.427Z,0.9
2023-03-10T05:26:26.978Z,1.1
2023-03-10T05:27:35.256Z,1.1
2023-03-10T05:28:43.566Z,1.1
2023-03-10T05:29:52.090Z,1.4
2023-03-10T05:31:00.417Z,1.4
2023-03-10T05:32:08.728Z,1.4
2023-03-10T05:33:17.250Z,1.4
2023-03-10T05:34:25.572Z,1.4
2023-03-10T05:35:33.969Z,1.4
2023-03-10T05:36:42.452Z,1.5
2023-03-10T05:37:50.748Z,1.5
2023-03-10T05:38:59.088Z,1.5
2023-03-10T05:40:07.588Z,1.3
2023-03-10T05:41:15.909Z,1.3
2023-03-10T05:42:24.383Z,1.3
2023-03-10T05:43:32.769Z,1.1
2023-03-10T05:44:41.110Z,1.1
2023-03-10T05:45:49.424Z,1.1
2023-03-10T05:46:58.072Z,1.3
2023-03-10T05:48:06.281Z,1.3
2023-03-10T05:49:14.597Z,1.3
2023-03-10T05:50:23.109Z,4.8
2023-03-10T05:51:31.433Z,4.8
2023-03-10T05:52:39.753Z,4.8
2023-03-10T05:53:48.279Z,7.6
2023-03-10T05:54:56.590Z,7.6
2023-03-10T05:56:04.908Z,7.6
2023-03-10T05:57:14.101Z,4.4
2023-03-10T05:58:21.795Z,4.4
2023-03-10T05:59:30.094Z,4.4
2023-03-10T06:00:38.610Z,1.9
2023-03-10T06:01:46.930Z,1.9
2023-03-10T06:02:55.236Z,1.9
2023-03-10T06:04:03.895Z,30
2023-03-10T06:05:12.071Z,30
2023-03-10T06:06:20.370Z,30
2023-03-10T06:07:28.901Z,20.6
2023-03-10T06:08:37.211Z,20.6
2023-03-10T06:09:45.522Z,20.6
2023-03-10T06:10:54.040Z,7.1
2023-03-10T06:12:02.370Z,7.1
2023-03-10T06:13:10.685Z,7.1
2023-03-10T06:14:19.234Z,13.8
2023-03-10T06:15:27.539Z,13.8
2023-03-10T06:16:35.885Z,13.8
2023-03-10T06:17:44.396Z,12.1
2023-03-10T06:18:52.708Z,12.1
2023-03-10T06:20:01.030Z,12.1
2023-03-10T06:21:09.553Z,8.9
2023-03-10T06:22:17.893Z,8.9
2023-03-10T06:23:26.210Z,8.9
2023-03-10T06:24:34.730Z,19
2023-03-10T06:25:43.059Z,19
2023-03-10T06:26:51.360Z,19
2023-03-10T06:27:59.888Z,5.2
2023-03-10T06:29:08.210Z,5.2
2023-03-10T06:30:16.538Z,5.2
2023-03-10T06:31:25.111Z,6.1
2023-03-10T06:32:33.377Z,6.1
2023-03-10T06:33:41.702Z,6.1
2023-03-10T06:34:50.214Z,4.9
2023-03-10T06:35:58.589Z,4.9
2023-03-10T06:37:06.855Z,4.9
2023-03-10T06:38:15.391Z,2.9
2023-03-10T06:39:25.468Z,2.9
2023-03-10T06:40:32.006Z,2.9
2023-03-10T06:41:40.549Z,4.7
2023-03-10T06:42:48.860Z,4.7
2023-03-10T06:43:57.176Z,4.7
2023-03-10T06:45:05.719Z,3.1
2023-03-10T06:46:14.136Z,3.1
2023-03-10T06:47:22.409Z,3.1
2023-03-10T06:48:30.910Z,2.6
2023-03-10T06:49:39.223Z,2.6
2023-03-10T06:50:47.575Z,2.6
2023-03-10T06:51:56.102Z,5.4
2023-03-10T06:53:04.427Z,5.4
2023-03-10T06:54:12.745Z,5.4
2023-03-10T06:55:21.265Z,4.7
2023-03-10T06:56:29.569Z,4.7
2023-03-10T06:57:37.932Z,4.7
2023-03-10T06:58:46.427Z,6.4
2023-03-10T06:59:54.742Z,6.4
2023-03-10T07:01:03.160Z,6.4
2023-03-10T07:02:11.697Z,7.1
2023-03-10T07:03:19.905Z,7.1
2023-03-10T07:04:28.265Z,7.1
2023-03-10T07:05:36.740Z,21.9
2023-03-10T07:06:45.038Z,21.9
2023-03-10T07:07:53.368Z,21.9
2023-03-10T07:09:01.897Z,9.9
2023-03-10T07:10:10.201Z,9.9
2023-03-10T07:11:18.513Z,9.9
2023-03-10T07:12:27.038Z,7.2
2023-03-10T07:13:35.350Z,7.2
2023-03-10T07:14:43.665Z,7.2
2023-03-10T07:15:52.177Z,20.799999
2023-03-10T07:17:00.536Z,20.799999
2023-03-10T07:18:08.876Z,20.799999
2023-03-10T07:19:17.383Z,9.6
2023-03-10T07:20:25.709Z,9.6
2023-03-10T07:21:34.029Z,9.6
2023-03-10T07:22:42.565Z,3.7
2023-03-10T07:23:50.870Z,3.7
2023-03-10T07:24:59.186Z,3.7
2023-03-10T07:26:07.715Z,10
2023-03-10T07:27:16.039Z,10
2023-03-10T07:28:24.367Z,10
2023-03-10T07:29:32.882Z,4
2023-03-10T07:30:41.239Z,4
2023-03-10T07:31:49.505Z,4
2023-03-10T07:32:58.023Z,2.7
2023-03-10T07:34:06.386Z,2.7
2023-03-10T07:35:14.648Z,2.7
2023-03-10T07:36:23.182Z,3.1
2023-03-10T07:37:31.500Z,3.1
2023-03-10T07:38:39.803Z,3.1
2023-03-10T07:39:48.323Z,3
2023-03-10T07:40:56.636Z,3
2023-03-10T07:42:04.944Z,3
2023-03-10T07:43:13.481Z,2.3
2023-03-10T07:44:21.796Z,2.3
2023-03-10T07:45:30.106Z,2.3
2023-03-10T07:46:38.675Z,4.1
2023-03-10T07:47:46.941Z,4.1
2023-03-10T07:48:55.247Z,4.1
2023-03-10T07:50:03.796Z,3.3
2023-03-10T07:51:12.155Z,3.3
2023-03-10T07:52:20.385Z,3.3
2023-03-10T07:53:28.919Z,2.2
2023-03-10T07:54:37.228Z,2.2
2023-03-10T07:55:45.539Z,2.2
2023-03-10T07:56:54.062Z,2.8
2023-03-10T07:58:02.373Z,2.8
2023-03-10T07:59:10.688Z,2.8
2023-03-10T08:00:19.207Z,3.2
2023-03-10T08:01:27.515Z,3.2
2023-03-10T08:02:35.839Z,3.2
2023-03-10T08:03:44.440Z,2.9
2023-03-10T08:04:52.753Z,2.9
2023-03-10T08:06:01.054Z,2.9
2023-03-10T08:07:09.541Z,3.8
2023-03-10T08:08:17.872Z,3.8
2023-03-10T08:09:26.180Z,3.8
2023-03-10T08:10:34.778Z,3.9
2023-03-10T08:11:43.047Z,3.9
2023-03-10T08:12:51.357Z,3.9
2023-03-10T08:13:59.997Z,3.3
2023-03-10T08:15:08.193Z,3.3
2023-03-10T08:16:16.576Z,3.3
2023-03-10T08:17:25.031Z,3.9
2023-03-10T08:18:33.379Z,3.9
2023-03-10T08:19:41.701Z,3.9
2023-03-10T08:20:50.236Z,3.6
2023-03-10T08:21:58.594Z,3.6
2023-03-10T08:23:06.884Z,3.6
2023-03-10T08:24:15.418Z,4.8
2023-03-10T08:25:23.728Z,4.8
2023-03-10T08:26:32.044Z,4.8
2023-03-10T08:27:40.596Z,4.9
2023-03-10T08:28:48.916Z,4.9
2023-03-10T08:29:57.226Z,4.9
2023-03-10T08:31:05.755Z,5
2023-03-10T08:32:14.064Z,5
2023-03-10T08:33:22.381Z,5
2023-03-10T08:34:30.917Z,5.3
2023-03-10T08:35:39.262Z,5.3
2023-03-10T08:36:47.541Z,5.3
2023-03-10T08:37:56.100Z,15.9
2023-03-10T08:39:04.394Z,15.9
2023-03-10T08:40:12.719Z,15.9
2023-03-10T08:41:21.237Z,8.7
2023-03-10T08:42:29.557Z,8.7
2023-03-10T08:43:37.877Z,8.7
2023-03-10T08:44:46.395Z,6
2023-03-10T08:45:54.714Z,6
2023-03-10T08:47:03.085Z,6
2023-03-10T08:48:11.556Z,9.9
2023-03-10T08:49:19.895Z,9.9
2023-03-10T08:50:28.189Z,9.9
2023-03-10T08:51:36.722Z,4.9
2023-03-10T08:52:45.016Z,4.9
2023-03-10T08:53:53.439Z,4.9
2023-03-10T08:55:01.885Z,4
2023-03-10T08:56:10.193Z,4
2023-03-10T08:57:18.493Z,4
2023-03-10T08:58:27.013Z,5.6
2023-03-10T08:59:35.345Z,5.6
2023-03-10T09:00:43.664Z,5.6
2023-03-10T09:01:52.238Z,4.7
2023-03-10T09:03:00.576Z,4.7
2023-03-10T09:04:08.826Z,4.7
2023-03-10T09:05:17.342Z,4.2
2023-03-10T09:06:25.649Z,4.2
2023-03-10T09:07:33.962Z,4.2
2023-03-10T09:08:42.515Z,11.7
2023-03-10T09:09:50.837Z,11.7
2023-03-10T09:10:59.118Z,11.7
2023-03-10T09:12:07.630Z,18.4
2023-03-10T09:13:15.952Z,18.4
2023-03-10T09:14:24.322Z,18.4
2023-03-10T09:15:32.835Z,6
2023-03-10T09:16:41.341Z,6
2023-03-10T09:17:49.490Z,6
2023-03-10T09:18:58.033Z,6
2023-03-10T09:20:06.395Z,6
2023-03-10T09:21:14.714Z,6
2023-03-10T09:22:23.236Z,13.6
2023-03-10T09:23:31.549Z,13.6
2023-03-10T09:24:39.876Z,13.6
2023-03-10T09:25:48.422Z,7
2023-03-10T09:26:56.701Z,7
2023-03-10T09:28:05.021Z,7
2023-03-10T09:29:13.556Z,11.7
2023-03-10T09:30:21.868Z,11.7
2023-03-10T09:31:30.319Z,11.7
2023-03-10T09:32:38.761Z,3.9
2023-03-10T09:33:48.199Z,3.9
2023-03-10T09:34:55.367Z,3.9
2023-03-10T09:36:07.798Z,3.6
2023-03-10T09:37:12.189Z,3.6
2023-03-10T09:38:20.498Z,3.6
2023-03-10T09:39:29.068Z,4.8
2023-03-10T09:40:37.377Z,4.8
2023-03-10T09:41:45.741Z,4.8
2023-03-10T09:42:54.206Z,7.6
2023-03-10T09:44:02.531Z,7.6
2023-03-10T09:45:10.846Z,7.6
2023-03-10T09:46:19.473Z,3.7
2023-03-10T09:47:27.717Z,3.7
2023-03-10T09:48:36.000Z,3.7
2023-03-10T09:49:44.528Z,3.6
2023-03-10T09:50:52.848Z,3.6
2023-03-10T09:52:01.155Z,3.6
2023-03-10T09:53:09.680Z,3.6
2023-03-10T09:54:18.006Z,3.6
2023-03-10T09:55:26.312Z,3.6
2023-03-10T09:56:34.856Z,3.5
2023-03-10T09:57:43.189Z,3.5
2023-03-10T09:58:51.465Z,3.5
2023-03-10T09:59:59.992Z,5.2
2023-03-10T10:01:08.298Z,5.2
2023-03-10T10:02:16.619Z,5.2
2023-03-10T10:03:25.234Z,5.1
2023-03-10T10:04:33.495Z,5.1
2023-03-10T10:05:41.823Z,5.1
2023-03-10T10:06:50.319Z,4.8
2023-03-10T10:07:58.630Z,4.8
2023-03-10T10:09:07.018Z,4.8
2023-03-10T10:10:15.476Z,8.2
2023-03-10T10:11:23.790Z,8.2
2023-03-10T10:12:32.107Z,8.2
2023-03-10T10:13:42.550Z,5.8
2023-03-10T10:14:57.089Z,5.8
2023-03-10T10:16:16.234Z,5.8
2023-03-10T10:17:05.821Z,6.1
2023-03-10T10:18:20.811Z,6.1
2023-03-10T10:19:22.423Z,6.1
2023-03-10T10:20:30.952Z,7.8
2023-03-10T10:21:42.458Z,7.8
2023-03-10T10:22:47.578Z,7.8
2023-03-10T10:23:56.089Z,7
2023-03-10T10:25:06.410Z,7
2023-03-10T10:26:12.741Z,7
2023-03-10T10:27:22.778Z,5
2023-03-10T10:28:29.571Z,5
2023-03-10T10:29:37.931Z,5
2023-03-10T10:30:46.454Z,6
2023-03-10T10:31:54.731Z,6
2023-03-10T10:33:03.050Z,6
2023-03-10T10:34:12.758Z,6.8
2023-03-10T10:35:19.885Z,6.8
2023-03-10T10:36:28.212Z,6.8
2023-03-10T10:37:39.569Z,8.1
2023-03-10T10:38:45.053Z,8.1
2023-03-10T10:39:53.366Z,8.1
2023-03-10T10:41:01.896Z,4
2023-03-10T10:42:10.205Z,4
2023-03-10T10:43:18.551Z,4
2023-03-10T10:44:27.050Z,3.8
2023-03-10T10:45:35.422Z,3.8
2023-03-10T10:46:43.700Z,3.8
2023-03-10T10:47:52.218Z,4
2023-03-10T10:49:01.294Z,4
2023-03-10T10:50:09.633Z,4
2023-03-10T10:51:18.143Z,4
2023-03-10T10:52:26.457Z,4
2023-03-10T10:53:34.772Z,4
2023-03-10T10:54:43.290Z,3.9
2023-03-10T10:55:51.601Z,3.9
2023-03-10T10:56:59.908Z,3.9
2023-03-10T10:58:08.436Z,4
2023-03-10T10:59:16.761Z,4
2023-03-10T11:00:25.092Z,4
2023-03-10T11:01:33.681Z,3.6
2023-03-10T11:02:41.990Z,3.6
2023-03-10T11:03:50.237Z,3.6
2023-03-10T11:04:58.776Z,2.7
2023-03-10T11:06:07.094Z,2.7
2023-03-10T11:07:15.409Z,2.7
2023-03-10T11:08:23.919Z,2.3
2023-03-10T11:09:32.230Z,2.3
2023-03-10T11:10:40.558Z,2.3
2023-03-10T11:11:49.123Z,3.1
2023-03-10T11:12:57.439Z,3.1
2023-03-10T11:14:05.741Z,3.1
2023-03-10T11:15:14.273Z,3.4
2023-03-10T11:16:22.580Z,3.4
2023-03-10T11:17:30.978Z,3.4
2023-03-10T11:18:39.522Z,3.1
2023-03-10T11:19:47.829Z,3.1
2023-03-10T11:20:56.162Z,3.1
2023-03-10T11:22:04.661Z,4
2023-03-10T11:23:12.981Z,4
2023-03-10T11:24:21.298Z,4
2023-03-10T11:25:29.821Z,4.7
2023-03-10T11:26:38.137Z,4.7
2023-03-10T11:27:46.438Z,4.7
2023-03-10T11:28:54.959Z,4.2
2023-03-10T11:30:03.279Z,4.2
2023-03-10T11:31:11.694Z,4.2
2023-03-10T11:32:20.134Z,4.9
2023-03-10T11:33:28.466Z,4.9
2023-03-10T11:34:36.750Z,4.9
2023-03-10T11:35:45.346Z,4.5
2023-03-10T11:36:56.520Z,4.5
2023-03-10T11:38:02.008Z,4.5
2023-03-10T11:39:10.612Z,3.5
2023-03-10T11:40:18.986Z,3.5
2023-03-10T11:41:27.272Z,3.5
2023-03-10T11:42:35.792Z,4.2
2023-03-10T11:43:44.106Z,4.2
2023-03-10T11:44:52.427Z,4.2
2023-03-10T11:46:01.087Z,6.2
2023-03-10T11:47:09.268Z,6.2
2023-03-10T11:48:17.593Z,6.2
2023-03-10T11:49:26.130Z,3.5
2023-03-10T11:50:34.436Z,3.5
2023-03-10T11:51:42.781Z,3.5
2023-03-10T11:52:51.292Z,4.4
2023-03-10T11:53:59.629Z,4.4
2023-03-10T11:55:07.972Z,4.4
2023-03-10T11:56:16.507Z,3
2023-03-10T11:57:24.822Z,3
2023-03-10T11:58:33.147Z,3
2023-03-10T11:59:41.662Z,1.7
2023-03-10T12:00:50.004Z,1.7
2023-03-10T12:01:58.376Z,1.7
2023-03-10T12:03:06.889Z,1.6
2023-03-10T12:04:15.151Z,1.6
2023-03-10T12:05:23.593Z,1.6
2023-03-10T12:06:31.992Z,1.6
2023-03-10T12:07:40.325Z,1.6
2023-03-10T12:08:48.665Z,1.6
2023-03-10T12:09:57.361Z,1.4
2023-03-10T12:11:05.944Z,1.4
2023-03-10T12:12:14.276Z,1.4
2023-03-10T12:13:22.890Z,1
2023-03-10T12:14:31.288Z,1
2023-03-10T12:15:40.082Z,1
2023-03-10T12:16:48.843Z,0.9
2023-03-10T12:17:57.209Z,0.9
2023-03-10T12:19:05.663Z,0.9
2023-03-10T12:20:14.257Z,0.7
2023-03-10T12:21:22.670Z,0.7
2023-03-10T12:22:31.053Z,0.7
2023-03-10T12:23:39.659Z,0.7
2023-03-10T12:24:48.044Z,0.7
2023-03-10T12:25:56.417Z,0.7
2023-03-10T12:27:05.011Z,0.9
2023-03-10T12:28:13.361Z,0.9
2023-03-10T12:29:21.773Z,0.9
2023-03-10T12:30:30.354Z,1.2
2023-03-10T12:31:38.836Z,1.2
2023-03-10T12:32:47.447Z,1.2
2023-03-10T12:33:55.760Z,0.6
2023-03-10T12:35:04.128Z,0.6
2023-03-10T12:36:12.654Z,0.6
2023-03-10T12:37:21.193Z,0.4
2023-03-10T12:38:29.513Z,0.4
2023-03-10T12:39:38.033Z,0.4
2023-03-10T12:40:46.499Z,1.1
2023-03-10T12:41:54.888Z,1.1
2023-03-10T12:43:03.317Z,1.1
2023-03-10T12:44:12.312Z,2.2
2023-03-10T12:45:20.717Z,2.2
2023-03-10T12:46:29.159Z,2.2
2023-03-10T12:47:37.745Z,0.9
2023-03-10T12:48:46.284Z,0.9
2023-03-10T12:49:54.664Z,0.9
2023-03-10T12:51:03.257Z,2.3
2023-03-10T12:52:11.690Z,2.3
2023-03-10T12:53:20.074Z,2.3
2023-03-10T12:54:28.606Z,1.5
2023-03-10T12:55:36.997Z,1.5
2023-03-10T12:56:45.392Z,1.5
2023-03-10T12:57:54.001Z,2.1
2023-03-10T12:59:02.380Z,2.1
2023-03-10T13:00:10.748Z,2.1
2023-03-10T13:01:19.342Z,3
2023-03-10T13:02:27.733Z,3
2023-03-10T13:03:36.140Z,3
2023-03-10T13:04:44.724Z,3
2023-03-10T13:05:53.162Z,3
2023-03-10T13:07:01.505Z,3
2023-03-10T13:08:10.097Z,2.3
2023-03-10T13:09:18.521Z,2.3
2023-03-10T13:10:26.892Z,2.3
2023-03-10T13:11:35.543Z,2.4
2023-03-10T13:12:43.919Z,2.4
2023-03-10T13:13:52.295Z,2.4
2023-03-10T13:15:00.905Z,2.1
2023-03-10T13:16:09.404Z,2.1
2023-03-10T13:17:17.775Z,2.1
2023-03-10T13:18:26.321Z,2.9
2023-03-10T13:19:34.758Z,2.9
2023-03-10T13:20:43.113Z,2.9
2023-03-10T13:21:51.709Z,3
2023-03-10T13:23:00.094Z,3
2023-03-10T13:24:08.455Z,3
2023-03-10T13:25:17.052Z,3.7
2023-03-10T13:26:25.417Z,3.7
2023-03-10T13:27:33.773Z,3.7
2023-03-10T13:28:42.351Z,2.6
2023-03-10T13:29:50.721Z,2.6
2023-03-10T13:30:59.151Z,2.6
2023-03-10T13:32:07.825Z,2.2
2023-03-10T13:33:16.205Z,2.2
2023-03-10T13:34:24.579Z,2.2
2023-03-10T13:35:33.201Z,2.1
2023-03-10T13:36:41.563Z,2.1
2023-03-10T13:37:49.947Z,2.1
2023-03-10T13:38:58.563Z,2.4
2023-03-10T13:40:06.913Z,2.4
2023-03-10T13:41:15.304Z,2.4
2023-03-10T13:42:28.344Z,2.2
2023-03-10T13:43:32.287Z,2.2
2023-03-10T13:44:40.665Z,2.2
2023-03-10T13:45:49.285Z,2.8
2023-03-10T13:46:57.635Z,2.8
2023-03-10T13:48:06.023Z,2.8
2023-03-10T13:49:14.628Z,2.9
2023-03-10T13:50:23.030Z,2.9
2023-03-10T13:51:32.356Z,2.9
2023-03-10T13:52:40.064Z,1.6
2023-03-10T13:53:48.491Z,1.6
2023-03-10T13:54:56.843Z,1.6
2023-03-10T13:56:05.403Z,2.9
2023-03-10T13:57:13.824Z,2.9
2023-03-10T13:58:22.224Z,2.9
2023-03-10T13:59:31.416Z,9
2023-03-10T14:00:39.727Z,9
2023-03-10T14:01:48.102Z,9
2023-03-10T14:02:56.721Z,3.7
2023-03-10T14:04:05.445Z,3.7
2023-03-10T14:05:13.697Z,3.7
2023-03-10T14:06:22.295Z,9.8
2023-03-10T14:07:35.497Z,9.8
2023-03-10T14:08:47.197Z,9.8
2023-03-10T14:09:58.851Z,5.4
2023-03-10T14:11:07.218Z,5.4
2023-03-10T14:12:15.681Z,5.4
2023-03-10T14:13:24.347Z,8.5
2023-03-10T14:14:32.695Z,8.5
2023-03-10T14:15:41.104Z,8.5
2023-03-10T14:16:49.785Z,5.1
2023-03-10T14:17:58.079Z,5.1
2023-03-10T14:19:06.442Z,5.1
2023-03-10T14:20:15.024Z,3.3
2023-03-10T14:21:23.381Z,3.3
2023-03-10T14:22:31.793Z,3.3
2023-03-10T14:23:40.385Z,1.9
2023-03-10T14:24:48.769Z,1.9
2023-03-10T14:25:57.181Z,1.9
2023-03-10T14:27:05.844Z,1.6
2023-03-10T14:29:19.026Z,1.6
2023-03-10T14:30:27.559Z,2.9
2023-03-10T15:03:35.265Z,0
2023-03-10T15:04:43.870Z,0
2023-03-10T15:05:52.487Z,0
2023-03-10T15:07:01.318Z,0.8
2023-03-10T15:08:09.970Z,0.8
2023-03-10T15:09:18.633Z,0.8
2023-03-10T15:10:27.477Z,1.7
2023-03-10T15:11:37.646Z,1.7
2023-03-10T15:12:44.760Z,1.7
2023-03-10T15:13:53.620Z,1.1
2023-03-10T15:15:02.265Z,1.1
2023-03-10T15:16:10.975Z,1.1
2023-03-10T15:17:19.820Z,1
2023-03-10T15:18:28.768Z,1
2023-03-10T15:19:37.401Z,1
2023-03-10T15:20:46.174Z,2
2023-03-10T15:21:54.784Z,2
2023-03-10T15:23:03.423Z,2
2023-03-10T15:24:12.275Z,2.7
2023-03-10T15:25:21.004Z,2.7
2023-03-10T15:26:29.545Z,2.7
2023-03-10T15:27:38.372Z,0.7
2023-03-10T15:28:47.004Z,0.7
2023-03-10T15:29:55.590Z,0.7
2023-03-10T15:31:04.541Z,1.7
2023-03-10T15:32:13.177Z,1.7
2023-03-10T15:33:21.745Z,1.7
2023-03-10T15:34:30.606Z,1
2023-03-10T15:35:39.358Z,1
2023-03-10T15:36:47.868Z,1
2023-03-10T15:37:56.676Z,1.6
2023-03-10T15:39:05.362Z,1.6
2023-03-10T15:40:13.996Z,1.6
2023-03-10T15:41:22.828Z,0.4
2023-03-10T15:42:33.562Z,0.4
2023-03-10T15:43:42.228Z,0.4
2023-03-10T15:44:51.838Z,1.3
2023-03-10T15:46:33.467Z,1.3
2023-03-10T15:47:42.019Z,1.3
2023-03-10T15:48:50.888Z,0.5
2023-03-10T15:49:59.547Z,0.5
2023-03-10T15:51:09.721Z,0.5
2023-03-10T15:52:16.946Z,0.9
2023-03-10T15:53:25.564Z,0.9
2023-03-10T15:54:34.242Z,0.9
2023-03-10T15:55:43.093Z,1.4
2023-03-10T15:56:51.695Z,1.4
2023-03-10T15:58:00.275Z,1.4
2023-03-10T15:59:09.135Z,0.7
2023-03-10T16:00:17.810Z,0.7
2023-03-10T16:01:26.512Z,0.7
2023-03-10T16:02:35.302Z,0.9
2023-03-10T16:03:43.939Z,0.9
2023-03-10T16:04:52.541Z,0.9
2023-03-10T16:06:01.336Z,1.7
2023-03-10T16:07:09.906Z,1.7
2023-03-10T16:08:18.208Z,1.7
2023-03-10T16:09:26.751Z,2.5
2023-03-10T16:10:35.145Z,2.5
2023-03-10T16:11:43.419Z,2.5
2023-03-10T16:12:51.977Z,1.6
2023-03-10T16:14:00.300Z,1.6
2023-03-10T16:15:08.628Z,1.6
2023-03-10T16:16:17.179Z,2.6
2023-03-10T16:17:25.476Z,2.6
2023-03-10T16:18:33.814Z,2.6
2023-03-10T16:19:42.372Z,2
2023-03-10T16:20:50.683Z,2
2023-03-10T16:21:58.997Z,2
2023-03-10T16:23:07.559Z,1
2023-03-10T16:24:15.874Z,1